createdAt,value
2023-06-29T00:01:17.655Z,1.00
2023-06-29T00:03:45.766Z,1.00
2023-06-29T00:06:14.227Z,1.00
2023-06-29T00:08:45.059Z,1.00
2023-06-29T00:11:14.801Z,1.00
2023-06-29T00:13:42.847Z,1.00
2023-06-29T00:16:10.965Z,1.00
2023-06-29T00:18:39.756Z,1.00
2023-06-29T00:21:07.750Z,1.00
2023-06-29T00:23:35.946Z,1.00
2023-06-29T00:26:05.036Z,1.00
2023-06-29T00:28:34.490Z,1.00
2023-06-29T00:31:02.621Z,1.00
2023-06-29T00:33:31.283Z,1.00
2023-06-29T00:35:59.457Z,1.00
2023-06-29T00:38:27.509Z,1.00
2023-06-29T00:40:55.836Z,1.00
2023-06-29T00:43:23.898Z,3.60
2023-06-29T00:45:53.340Z,2.40
2023-06-29T00:48:21.646Z,12.50
2023-06-29T00:50:50.058Z,23.40
2023-06-29T00:53:18.171Z,5.90
2023-06-29T00:55:47.018Z,16.50
2023-06-29T00:58:15.102Z,25.40
2023-06-29T01:00:43.217Z,25.90
2023-06-29T01:03:13.134Z,21.50
2023-06-29T01:05:43.210Z,24.50
2023-06-29T01:08:15.597Z,18.70
2023-06-29T01:10:46.817Z,15.30
2023-06-29T01:13:18.274Z,25.00
2023-06-29T01:15:48.359Z,22.90
2023-06-29T01:18:18.537Z,27.60
2023-06-29T01:20:48.905Z,26.00
2023-06-29T01:23:23.314Z,36.70
2023-06-29T01:25:53.152Z,43.00
2023-06-29T01:28:21.187Z,54.00
2023-06-29T01:30:51.042Z,60.00
2023-06-29T01:33:21.761Z,54.40
2023-06-29T01:35:53.530Z,74.70
2023-06-29T01:38:26.285Z,90.40
2023-06-29T01:40:59.354Z,99.90
2023-06-29T01:43:29.323Z,99.90
2023-06-29T01:45:58.396Z,99.90
2023-06-29T01:48:27.956Z,99.90
2023-06-29T01:50:56.444Z,99.90
2023-06-29T01:53:24.554Z,99.90
2023-06-29T01:55:52.591Z,99.90
2023-06-29T01:58:22.007Z,99.90
2023-06-29T02:00:50.268Z,99.90
2023-06-29T02:03:18.477Z,99.90
2023-06-29T02:05:46.590Z,99.90
2023-06-29T02:08:14.760Z,99.90
2023-06-29T02:10:42.759Z,99.90
2023-06-29T02:13:10.770Z,99.90
2023-06-29T02:15:40.158Z,99.90
2023-06-29T02:18:08.185Z,99.90
2023-06-29T02:20:36.159Z,99.90
2023-06-29T02:23:04.343Z,99.90
2023-06-29T02:25:32.326Z,99.90
2023-06-29T02:28:00.380Z,99.90
2023-06-29T02:30:28.418Z,99.90
2023-06-29T02:32:57.803Z,99.90
2023-06-29T02:35:25.873Z,99.90
2023-06-29T02:37:53.843Z,99.90
2023-06-29T02:40:21.982Z,99.90
2023-06-29T02:42:49.922Z,99.90
2023-06-29T02:45:18.105Z,99.90
2023-06-29T02:47:46.185Z,99.90
2023-06-29T02:50:16.237Z,99.90
2023-06-29T02:52:44.252Z,99.90
2023-06-29T02:55:12.467Z,99.90
2023-06-29T02:57:40.510Z,99.90
2023-06-29T03:00:10.036Z,99.90
2023-06-29T03:02:38.132Z,99.90
2023-06-29T03:05:07.013Z,99.90
2023-06-29T03:07:36.531Z,99.90
2023-06-29T03:10:04.909Z,99.90
2023-06-29T03:12:32.850Z,99.90
2023-06-29T03:15:00.834Z,99.90
2023-06-29T03:17:29.373Z,99.90
2023-06-29T03:19:57.403Z,99.90
2023-06-29T03:22:26.396Z,99.90
2023-06-29T03:24:55.869Z,99.90
2023-06-29T03:27:23.948Z,99.90
2023-06-29T03:29:54.535Z,99.90
2023-06-29T03:32:22.563Z,99.90
2023-06-29T03:34:50.648Z,99.90
2023-06-29T03:37:18.680Z,99.90
2023-06-29T03:39:46.650Z,99.90
2023-06-29T03:42:16.073Z,99.90
2023-06-29T03:44:44.057Z,99.90
2023-06-29T03:47:12.020Z,99.90
2023-06-29T03:49:40.045Z,99.90
2023-06-29T03:52:08.923Z,99.90
2023-06-29T03:54:36.981Z,99.90
2023-06-29T03:57:05.459Z,99.90
2023-06-29T03:59:34.817Z,99.90
2023-06-29T04:02:02.890Z,99.90
2023-06-29T04:04:30.974Z,99.90
2023-06-29T04:06:59.089Z,99.90
2023-06-29T04:09:27.186Z,97.20
2023-06-29T04:11:55.269Z,98.30
2023-06-29T04:14:23.364Z,99.90
2023-06-29T04:16:52.895Z,88.90
2023-06-29T04:19:20.975Z,73.90
2023-06-29T04:21:48.998Z,64.40
2023-06-29T04:24:17.005Z,68.70
2023-06-29T04:26:45.072Z,99.40
2023-06-29T04:29:13.122Z,70.80
2023-06-29T04:31:41.211Z,70.80
2023-06-29T04:34:10.540Z,91.30
2023-06-29T04:36:38.505Z,94.70
2023-06-29T04:39:06.524Z,84.40
2023-06-29T04:41:34.535Z,99.90
2023-06-29T04:44:04.221Z,92.30
2023-06-29T04:46:32.438Z,91.70
2023-06-29T04:49:06.298Z,99.90
2023-06-29T04:51:36.724Z,98.10
2023-06-29T04:54:06.473Z,87.00
2023-06-29T04:56:34.565Z,80.50
2023-06-29T04:59:02.621Z,90.60
2023-06-29T05:01:30.820Z,99.90
2023-06-29T05:04:01.402Z,91.70
2023-06-29T05:06:30.628Z,99.90
2023-06-29T05:09:00.066Z,93.20
2023-06-29T05:11:28.091Z,92.90
2023-06-29T05:13:56.166Z,92.40
2023-06-29T05:16:24.212Z,99.90
2023-06-29T05:18:52.307Z,99.90
2023-06-29T05:21:20.334Z,99.90
2023-06-29T05:23:48.364Z,99.90
2023-06-29T05:26:18.885Z,99.90
2023-06-29T05:29:00.003Z,97.20
2023-06-29T05:31:32.263Z,99.90
2023-06-29T05:34:00.354Z,99.90
2023-06-29T05:36:28.688Z,99.90
2023-06-29T05:38:56.758Z,99.70
2023-06-29T05:41:26.154Z,99.90
2023-06-29T05:43:54.355Z,99.90
2023-06-29T05:46:22.351Z,99.90
2023-06-29T05:48:50.421Z,99.90
2023-06-29T05:51:18.382Z,99.10
2023-06-29T05:53:46.788Z,99.90
2023-06-29T05:56:14.851Z,99.90
2023-06-29T05:58:44.430Z,99.90
2023-06-29T06:01:14.058Z,99.90
2023-06-29T06:03:42.462Z,99.90
2023-06-29T06:06:11.374Z,99.90
2023-06-29T06:08:39.387Z,99.90
2023-06-29T06:11:07.616Z,99.90
2023-06-29T06:13:35.624Z,99.90
2023-06-29T06:16:05.960Z,99.90
2023-06-29T06:18:34.070Z,99.90
2023-06-29T06:21:02.108Z,99.90
2023-06-29T06:23:31.867Z,99.90
2023-06-29T06:26:02.301Z,99.90
2023-06-29T06:28:30.527Z,99.90
2023-06-29T06:30:58.585Z,99.90
2023-06-29T06:33:31.809Z,99.90
2023-06-29T06:36:00.463Z,99.90
2023-06-29T06:38:44.823Z,99.90
2023-06-29T06:41:16.837Z,99.90
2023-06-29T06:43:44.899Z,99.90
2023-06-29T06:46:13.059Z,99.90
2023-06-29T06:48:42.563Z,99.90
2023-06-29T06:51:10.637Z,99.90
2023-06-29T06:53:38.698Z,99.90
2023-06-29T06:56:06.834Z,99.90
2023-06-29T06:58:35.196Z,99.90
2023-06-29T07:01:03.503Z,99.90
2023-06-29T07:03:31.752Z,99.90
2023-06-29T07:06:01.117Z,99.90
2023-06-29T07:08:29.293Z,99.90
2023-06-29T07:10:57.373Z,99.90
2023-06-29T07:13:25.681Z,99.90
2023-06-29T07:15:53.690Z,99.90
2023-06-29T07:18:22.628Z,99.90
2023-06-29T07:25:54.043Z,99.90
2023-06-29T07:28:22.458Z,99.90
2023-06-29T07:30:51.817Z,99.90
2023-06-29T07:33:20.033Z,99.90
2023-06-29T07:35:48.108Z,99.90
2023-06-29T07:38:17.364Z,99.90
2023-06-29T07:40:49.606Z,99.90
2023-06-29T07:43:18.132Z,99.90
2023-06-29T07:45:46.631Z,99.90
2023-06-29T07:48:15.250Z,89.60
2023-06-29T07:50:44.214Z,95.20
2023-06-29T07:53:12.469Z,76.70
2023-06-29T07:55:40.550Z,59.00
2023-06-29T08:00:40.797Z,46.20
2023-06-29T08:03:09.425Z,51.90
2023-06-29T08:08:08.578Z,46.10
2023-06-29T08:10:36.654Z,52.70
2023-06-29T08:13:06.099Z,36.40
2023-06-29T08:15:35.710Z,52.10
2023-06-29T08:18:03.795Z,39.30
2023-06-29T08:20:31.946Z,40.20
2023-06-29T08:22:59.900Z,51.90
2023-06-29T08:25:28.521Z,47.70
2023-06-29T08:27:56.496Z,37.40
2023-06-29T08:30:24.772Z,38.10
2023-06-29T08:32:54.532Z,32.80
2023-06-29T08:35:22.574Z,43.60
2023-06-29T08:37:50.705Z,39.80
2023-06-29T08:40:22.704Z,35.80
2023-06-29T08:42:51.699Z,56.90
2023-06-29T08:45:20.277Z,43.30
2023-06-29T08:47:52.580Z,42.00
2023-06-29T08:50:26.570Z,44.90
2023-06-29T08:52:55.080Z,49.00
2023-06-29T08:55:24.412Z,27.80
2023-06-29T08:57:54.395Z,58.30
2023-06-29T09:00:24.041Z,36.30
2023-06-29T09:02:55.654Z,20.40
2023-06-29T09:05:25.407Z,29.00
2023-06-29T09:07:54.419Z,25.80
2023-06-29T09:10:23.422Z,22.80
2023-06-29T09:12:53.358Z,16.10
2023-06-29T09:15:25.178Z,7.80
2023-06-29T09:17:56.891Z,1.00
2023-06-29T09:20:28.766Z,1.00
2023-06-29T09:22:57.109Z,1.00
2023-06-29T09:25:34.752Z,1.00
2023-06-29T09:28:05.023Z,1.00
2023-06-29T09:30:41.060Z,1.00
2023-06-29T09:33:11.166Z,1.00
2023-06-29T09:35:42.426Z,1.00
2023-06-29T09:38:10.607Z,1.00
2023-06-29T09:40:49.223Z,1.00
2023-06-29T09:43:18.208Z,1.00
2023-06-29T09:45:46.552Z,1.00
2023-06-29T09:50:54.557Z,1.00
2023-06-29T09:53:30.836Z,1.00
2023-06-29T09:56:00.802Z,1.00
2023-06-29T09:58:30.304Z,1.00
2023-06-29T10:00:59.758Z,1.00
2023-06-29T10:03:28.424Z,1.00
2023-06-29T10:06:01.372Z,1.00
2023-06-29T10:08:33.925Z,1.00
2023-06-29T10:11:04.753Z,1.00
2023-06-29T10:13:39.805Z,1.00
2023-06-29T10:16:11.512Z,1.00
2023-06-29T10:18:46.170Z,1.00
2023-06-29T10:21:16.189Z,1.00
2023-06-29T10:23:46.273Z,1.00
2023-06-29T10:26:15.226Z,1.00
2023-06-29T10:28:44.055Z,1.00
2023-06-29T10:31:12.187Z,1.00
2023-06-29T10:33:48.562Z,1.00
2023-06-29T10:36:19.127Z,1.00
2023-06-29T10:38:47.404Z,1.00
2023-06-29T10:41:29.216Z,1.00
2023-06-29T10:43:59.174Z,1.00
2023-06-29T10:46:44.063Z,1.00
2023-06-29T10:49:22.641Z,1.00
2023-06-29T10:51:56.710Z,1.00
2023-06-29T10:54:25.387Z,1.00
2023-06-29T10:57:01.463Z,1.00
2023-06-29T10:59:30.715Z,1.00
2023-06-29T11:01:59.355Z,1.00
2023-06-29T11:04:27.720Z,1.00
2023-06-29T11:06:57.329Z,1.00
2023-06-29T11:09:25.549Z,1.00
2023-06-29T11:11:54.175Z,1.00
2023-06-29T11:14:22.309Z,1.00
2023-06-29T11:16:55.175Z,1.00
2023-06-29T11:19:28.214Z,1.00
2023-06-29T11:21:57.761Z,1.00
2023-06-29T11:24:25.794Z,1.00
2023-06-29T11:26:55.747Z,1.00
2023-06-29T11:29:23.881Z,1.00
2023-06-29T11:31:52.215Z,1.00
2023-06-29T11:34:20.429Z,1.00
2023-06-29T11:36:59.694Z,1.00
2023-06-29T11:39:38.054Z,1.00
2023-06-29T11:42:10.850Z,1.00
2023-06-29T11:44:38.961Z,1.00
2023-06-29T11:49:40.526Z,1.00
2023-06-29T11:52:09.815Z,1.00
2023-06-29T11:54:39.725Z,1.00
2023-06-29T11:57:08.141Z,1.00
2023-06-29T11:59:39.998Z,1.00
2023-06-29T12:02:09.781Z,1.00
2023-06-29T12:04:37.923Z,1.00
2023-06-29T12:07:06.504Z,1.00
2023-06-29T12:09:36.127Z,1.00
2023-06-29T12:12:06.223Z,1.00
2023-06-29T12:14:34.869Z,1.00
2023-06-29T12:19:35.830Z,1.00
2023-06-29T12:22:06.223Z,1.00
2023-06-29T12:24:34.593Z,1.00
2023-06-29T12:27:02.734Z,1.00
2023-06-29T12:29:32.097Z,1.00
2023-06-29T12:32:01.344Z,1.00
2023-06-29T12:34:32.359Z,1.00
2023-06-29T12:37:01.288Z,1.00
2023-06-29T12:39:29.588Z,1.00
2023-06-29T12:41:57.646Z,1.00
2023-06-29T12:44:27.602Z,1.00
2023-06-29T12:46:57.800Z,1.00
2023-06-29T12:49:27.802Z,1.00
2023-06-29T12:51:56.286Z,1.00
2023-06-29T12:54:25.333Z,1.00
2023-06-29T12:56:53.369Z,1.00
2023-06-29T12:59:21.469Z,1.00
2023-06-29T13:01:49.569Z,1.00
2023-06-29T13:04:20.900Z,1.00
2023-06-29T13:06:49.253Z,1.00
2023-06-29T13:09:17.358Z,1.00
2023-06-29T13:11:45.550Z,1.00
2023-06-29T13:14:13.646Z,1.00
2023-06-29T13:16:41.624Z,1.00
2023-06-29T13:19:09.674Z,1.00
2023-06-29T13:21:39.052Z,1.00
2023-06-29T13:24:07.992Z,1.00
2023-06-29T13:26:36.188Z,1.00
2023-06-29T13:29:04.446Z,1.00
2023-06-29T13:31:32.549Z,1.00
2023-06-29T13:34:00.663Z,1.00
2023-06-29T13:36:28.729Z,1.00
2023-06-29T13:38:58.086Z,1.00
2023-06-29T13:41:37.445Z,1.00
2023-06-29T13:44:06.427Z,1.00
2023-06-29T13:46:34.775Z,1.00
2023-06-29T13:49:03.202Z,1.00
2023-06-29T13:51:32.346Z,1.00
2023-06-29T13:54:03.438Z,1.00
2023-06-29T13:56:32.699Z,1.00
2023-06-29T13:59:04.370Z,1.00
2023-06-29T14:01:32.527Z,1.00
2023-06-29T14:04:02.176Z,1.00
2023-06-29T14:06:30.452Z,1.00
2023-06-29T14:08:58.430Z,1.00
2023-06-29T14:11:28.803Z,1.00
2023-06-29T14:13:58.392Z,1.00
2023-06-29T14:16:26.577Z,1.00
2023-06-29T14:18:55.126Z,1.00
2023-06-29T14:21:23.820Z,1.00
2023-06-29T14:23:51.857Z,1.00
2023-06-29T14:26:19.955Z,1.00
2023-06-29T14:28:49.463Z,1.00
2023-06-29T14:31:18.887Z,1.00
2023-06-29T14:33:47.360Z,1.00
2023-06-29T14:36:15.666Z,1.00
2023-06-29T14:38:43.721Z,1.00
2023-06-29T14:41:11.987Z,1.00
2023-06-29T14:43:40.034Z,1.00
2023-06-29T14:46:09.499Z,1.00
2023-06-29T14:48:37.493Z,1.00
2023-06-29T14:51:05.510Z,1.00
2023-06-29T14:53:33.501Z,1.00
2023-06-29T14:56:09.429Z,1.00
2023-06-29T14:58:37.854Z,1.00
2023-06-29T15:01:05.982Z,1.00
2023-06-29T15:03:36.753Z,1.00
2023-06-29T15:06:04.981Z,1.00
2023-06-29T15:08:32.990Z,1.00
2023-06-29T15:11:01.396Z,1.00
2023-06-29T15:13:29.553Z,1.00
2023-06-29T15:15:59.269Z,1.00
2023-06-29T15:18:27.359Z,1.00
2023-06-29T15:20:56.677Z,1.00
2023-06-29T15:23:24.713Z,1.00
2023-06-29T15:25:52.965Z,1.00
2023-06-29T15:28:21.386Z,1.00
2023-06-29T15:30:54.008Z,1.00
2023-06-29T15:33:22.468Z,1.00
2023-06-29T15:35:50.517Z,1.00
2023-06-29T15:38:20.667Z,1.00
2023-06-29T15:40:50.628Z,1.00
2023-06-29T15:43:18.677Z,1.00
2023-06-29T15:45:47.321Z,1.00
2023-06-29T15:48:16.496Z,1.00
2023-06-29T15:50:44.572Z,1.00
2023-06-29T15:53:12.865Z,1.00
2023-06-29T15:55:42.388Z,1.00
2023-06-29T15:58:10.572Z,1.00
2023-06-29T16:00:39.705Z,1.00
2023-06-29T16:03:07.980Z,1.00
2023-06-29T16:05:36.880Z,1.00
2023-06-29T16:08:05.497Z,5.40
2023-06-29T16:10:33.593Z,1.00
2023-06-29T16:13:02.993Z,1.00
2023-06-29T16:15:31.039Z,3.10
2023-06-29T16:17:59.170Z,1.00
2023-06-29T16:20:27.228Z,1.00
2023-06-29T16:22:55.280Z,1.00
2023-06-29T16:25:25.073Z,1.00
2023-06-29T16:27:53.207Z,1.00
2023-06-29T16:30:23.188Z,1.00
2023-06-29T16:32:51.284Z,1.00
2023-06-29T16:35:20.333Z,1.00
2023-06-29T16:37:48.352Z,1.00
2023-06-29T16:40:17.277Z,4.50
2023-06-29T16:42:45.310Z,1.60
2023-06-29T16:45:14.008Z,1.00
2023-06-29T16:47:43.450Z,1.00
2023-06-29T16:50:12.068Z,1.00
2023-06-29T16:52:40.132Z,1.00
2023-06-29T16:55:08.685Z,1.00
2023-06-29T16:57:36.745Z,1.80
2023-06-29T17:00:05.536Z,1.00
2023-06-29T17:02:33.567Z,1.00
2023-06-29T17:05:03.574Z,1.00
2023-06-29T17:07:31.685Z,1.00
2023-06-29T17:09:59.786Z,1.00
2023-06-29T17:12:28.559Z,1.00
2023-06-29T17:14:56.707Z,1.00
2023-06-29T17:17:24.902Z,1.00
2023-06-29T17:19:53.456Z,1.00
2023-06-29T17:22:23.038Z,1.00
2023-06-29T17:24:51.034Z,1.00
2023-06-29T17:27:19.182Z,1.00
2023-06-29T17:29:49.626Z,1.00
2023-06-29T17:32:17.797Z,1.00
2023-06-29T17:34:45.818Z,1.00
2023-06-29T17:37:13.910Z,1.00
2023-06-29T17:39:43.367Z,1.00
2023-06-29T17:42:21.731Z,1.00
2023-06-29T17:44:49.754Z,1.00
2023-06-29T17:47:17.921Z,1.00
2023-06-29T17:49:46.238Z,1.00
2023-06-29T17:52:14.409Z,1.00
2023-06-29T17:54:43.948Z,1.00
2023-06-29T17:57:11.990Z,1.00
2023-06-29T17:59:40.214Z,1.00
2023-06-29T18:02:08.357Z,1.00
2023-06-29T18:04:36.845Z,1.00
2023-06-29T18:07:08.576Z,1.00
2023-06-29T18:09:36.609Z,1.00
2023-06-29T18:12:07.902Z,1.00
2023-06-29T18:14:35.974Z,1.00
2023-06-29T18:17:04.630Z,1.00
2023-06-29T18:19:32.671Z,1.00
2023-06-29T18:22:01.867Z,1.00
2023-06-29T18:24:30.253Z,1.00
2023-06-29T18:26:58.313Z,1.00
2023-06-29T18:29:30.101Z,1.00
2023-06-29T18:31:58.258Z,1.00
2023-06-29T18:34:26.585Z,1.00
2023-06-29T18:36:54.649Z,1.00
2023-06-29T18:39:22.734Z,1.00
2023-06-29T18:41:50.772Z,1.00
2023-06-29T18:44:18.953Z,1.00
2023-06-29T18:47:11.578Z,1.00
2023-06-29T18:52:11.452Z,1.00
2023-06-29T18:54:39.562Z,1.00
2023-06-29T18:57:11.305Z,1.00
2023-06-29T18:59:39.963Z,1.00
2023-06-29T19:02:09.781Z,1.00
2023-06-29T19:04:37.916Z,1.00
2023-06-29T19:07:06.394Z,1.00
2023-06-29T19:09:34.702Z,1.00
2023-06-29T19:12:02.755Z,1.00
2023-06-29T19:14:30.783Z,1.00
2023-06-29T19:16:58.827Z,1.00
2023-06-29T19:19:28.347Z,1.00
2023-06-29T19:21:56.311Z,1.00
2023-06-29T19:24:24.651Z,1.00
2023-06-29T19:26:52.709Z,1.00
2023-06-29T19:29:20.757Z,1.00
2023-06-29T19:31:48.974Z,1.00
2023-06-29T19:34:17.065Z,1.00
2023-06-29T19:36:47.739Z,1.00
2023-06-29T19:39:15.845Z,1.00
2023-06-29T19:41:43.872Z,1.00
2023-06-29T19:44:11.989Z,1.00
2023-06-29T19:46:40.065Z,1.00
2023-06-29T19:49:08.094Z,1.00
2023-06-29T19:51:40.165Z,1.00
2023-06-29T19:54:09.561Z,1.00
2023-06-29T19:56:37.612Z,1.00
2023-06-29T19:59:05.771Z,1.00
2023-06-29T20:01:33.824Z,1.00
2023-06-29T20:04:01.955Z,1.00
2023-06-29T20:06:30.193Z,1.00
2023-06-29T20:08:58.233Z,1.00
2023-06-29T20:11:28.748Z,1.00
2023-06-29T20:13:56.856Z,1.00
2023-06-29T20:16:25.027Z,1.00
2023-06-29T20:18:53.197Z,1.00
2023-06-29T20:21:21.370Z,1.00
2023-06-29T20:23:51.738Z,1.00
2023-06-29T20:26:20.162Z,1.00
2023-06-29T20:28:49.607Z,1.00
2023-06-29T20:31:17.704Z,1.00
2023-06-29T20:33:45.817Z,1.00
2023-06-29T20:36:14.815Z,1.00
2023-06-29T20:38:43.392Z,1.00
2023-06-29T20:41:11.646Z,1.00
2023-06-29T20:43:39.639Z,1.00
2023-06-29T20:46:09.108Z,1.00
2023-06-29T20:48:37.133Z,1.00
2023-06-29T20:51:16.874Z,1.00
2023-06-29T20:53:46.388Z,1.00
2023-06-29T20:56:14.460Z,1.00
2023-06-29T20:58:42.528Z,1.00
2023-06-29T21:01:11.977Z,1.00
2023-06-29T21:03:44.921Z,1.00
2023-06-29T21:06:13.743Z,1.00
2023-06-29T21:08:41.957Z,1.00
2023-06-29T21:11:10.674Z,1.00
2023-06-29T21:13:39.022Z,1.00
2023-06-29T21:16:07.831Z,1.00
2023-06-29T21:18:38.311Z,1.00
2023-06-29T21:21:09.547Z,1.00
2023-06-29T21:23:37.813Z,1.00
2023-06-29T21:26:06.422Z,1.00
2023-06-29T21:28:35.909Z,1.00
2023-06-29T21:31:05.216Z,1.00
2023-06-29T21:33:34.027Z,1.00
2023-06-29T21:36:04.205Z,1.00
2023-06-29T21:38:33.578Z,1.00
2023-06-29T21:41:01.754Z,1.00
2023-06-29T21:43:29.747Z,1.00
2023-06-29T21:45:57.776Z,1.00
2023-06-29T21:48:25.887Z,1.00
2023-06-29T21:50:54.062Z,1.00
2023-06-29T21:53:23.528Z,1.00
2023-06-29T21:55:51.585Z,1.00
2023-06-29T21:58:19.655Z,1.00
2023-06-29T22:00:48.042Z,1.00
2023-06-29T22:03:16.444Z,1.00
2023-06-29T22:05:45.616Z,1.00
2023-06-29T22:08:14.161Z,1.00
2023-06-29T22:10:43.513Z,1.00
2023-06-29T22:13:11.609Z,1.00
2023-06-29T22:15:44.631Z,1.00
2023-06-29T22:18:13.342Z,1.00
2023-06-29T22:20:41.738Z,1.00
2023-06-29T22:23:09.844Z,1.00
2023-06-29T22:25:37.794Z,1.00
2023-06-29T22:28:08.014Z,1.00
2023-06-29T22:30:36.174Z,1.00
2023-06-29T22:33:04.676Z,1.00
2023-06-29T22:35:32.719Z,1.00
2023-06-29T22:38:00.684Z,1.00
2023-06-29T22:40:28.740Z,1.00
2023-06-29T22:42:56.798Z,1.00
2023-06-29T22:45:26.834Z,1.00
2023-06-29T22:47:54.968Z,1.00
2023-06-29T22:50:22.954Z,1.00
2023-06-29T22:52:51.011Z,1.00
2023-06-29T22:55:19.068Z,1.00
2023-06-29T22:57:47.603Z,1.00
2023-06-29T23:00:16.440Z,1.00
2023-06-29T23:02:45.996Z,1.00
2023-06-29T23:05:14.445Z,1.00
2023-06-29T23:07:44.982Z,1.00
2023-06-29T23:10:14.321Z,1.00
2023-06-29T23:12:46.533Z,1.00
2023-06-29T23:15:14.594Z,1.00
2023-06-29T23:17:42.974Z,1.00
2023-06-29T23:20:14.124Z,1.00
2023-06-29T23:22:45.185Z,1.00
2023-06-29T23:25:13.440Z,1.00
2023-06-29T23:27:44.411Z,1.00
2023-06-29T23:30:14.403Z,1.00
2023-06-29T23:32:43.614Z,1.00
2023-06-29T23:35:13.102Z,1.00
2023-06-29T23:37:41.113Z,1.00
2023-06-29T23:40:11.567Z,1.00
2023-06-29T23:42:40.168Z,1.00
2023-06-29T23:45:10.855Z,1.00
2023-06-29T23:47:40.255Z,1.00
2023-06-29T23:50:11.033Z,1.00
2023-06-29T23:52:41.094Z,1.00
2023-06-29T23:55:10.414Z,1.00
2023-06-29T23:57:39.095Z,1.00
